createdAt,value
2023-03-16T00:00:22.673Z,69.18
2023-03-16T00:02:52.025Z,69.57
2023-03-16T00:05:20.519Z,70.02
2023-03-16T00:07:48.638Z,70.40
2023-03-16T00:10:16.960Z,70.35
2023-03-16T00:12:45.124Z,71.18
2023-03-16T00:15:13.327Z,70.45
2023-03-16T00:17:41.204Z,71.16
2023-03-16T00:20:12.233Z,71.34
2023-03-16T00:22:40.219Z,71.57
2023-03-16T00:25:09.109Z,71.82
2023-03-16T00:27:37.114Z,71.43
2023-03-16T00:30:06.268Z,71.34
2023-03-16T00:32:36.618Z,71.90
2023-03-16T00:35:09.265Z,72.20
2023-03-16T00:37:39.819Z,71.73
2023-03-16T00:40:09.870Z,71.66
2023-03-16T00:42:37.937Z,72.42
2023-03-16T00:45:07.009Z,71.85
2023-03-16T00:47:35.818Z,72.25
2023-03-16T00:50:04.120Z,71.88
2023-03-16T00:52:32.338Z,72.14
2023-03-16T00:55:03.667Z,72.24
2023-03-16T00:57:32.081Z,71.62
2023-03-16T01:00:00.387Z,72.37
2023-03-16T01:02:28.303Z,73.19
2023-03-16T01:04:56.269Z,73.28
2023-03-16T01:07:24.316Z,72.98
2023-03-16T01:09:52.338Z,72.65
2023-03-16T01:12:21.900Z,73.87
2023-03-16T01:14:49.874Z,73.45
2023-03-16T01:17:18.923Z,73.92
2023-03-16T01:19:47.889Z,73.49
2023-03-16T01:22:18.564Z,73.47
2023-03-16T01:24:46.827Z,73.60
2023-03-16T01:27:15.768Z,73.90
2023-03-16T01:29:45.374Z,74.13
2023-03-16T01:32:14.297Z,74.16
2023-03-16T01:34:42.311Z,74.46
2023-03-16T01:37:10.325Z,74.50
2023-03-16T01:39:38.267Z,74.72
2023-03-16T01:42:06.497Z,73.94
2023-03-16T01:44:55.221Z,74.32
2023-03-16T01:47:24.115Z,75.24
2023-03-16T01:49:55.772Z,74.59
2023-03-16T01:52:26.743Z,74.66
2023-03-16T01:54:58.267Z,75.39
2023-03-16T01:57:30.617Z,75.36
2023-03-16T02:00:09.098Z,75.42
2023-03-16T02:02:39.995Z,75.08
2023-03-16T02:05:13.911Z,74.90
2023-03-16T02:07:45.583Z,75.35
2023-03-16T02:10:16.677Z,75.31
2023-03-16T02:12:45.737Z,75.10
2023-03-16T02:15:16.422Z,75.40
2023-03-16T02:17:45.872Z,75.26
2023-03-16T02:20:26.579Z,75.74
2023-03-16T02:22:55.496Z,75.65
2023-03-16T02:25:25.716Z,75.50
2023-03-16T02:28:02.473Z,75.57
2023-03-16T02:30:32.319Z,75.65
2023-03-16T02:33:00.415Z,74.36
2023-03-16T02:35:28.495Z,74.72
2023-03-16T02:37:56.441Z,75.16
2023-03-16T02:40:27.410Z,74.60
2023-03-16T02:43:03.235Z,75.03
2023-03-16T02:45:39.455Z,75.12
2023-03-16T02:48:15.149Z,74.56
2023-03-16T02:50:51.021Z,74.20
2023-03-16T02:53:19.381Z,74.28
2023-03-16T02:55:47.469Z,74.02
2023-03-16T02:58:15.976Z,73.16
2023-03-16T03:00:46.567Z,73.03
2023-03-16T03:03:14.972Z,72.99
2023-03-16T03:05:42.838Z,72.54
2023-03-16T03:08:10.722Z,73.25
2023-03-16T03:10:38.619Z,72.88
2023-03-16T03:13:07.813Z,72.92
2023-03-16T03:15:35.761Z,72.61
2023-03-16T03:18:05.673Z,72.77
2023-03-16T03:20:34.048Z,72.77
2023-03-16T03:23:04.371Z,73.43
2023-03-16T03:25:34.893Z,73.24
2023-03-16T03:28:05.555Z,73.78
2023-03-16T03:30:33.939Z,73.94
2023-03-16T03:33:02.780Z,73.34
2023-03-16T03:35:32.374Z,73.34
2023-03-16T03:38:00.287Z,72.97
2023-03-16T03:40:28.339Z,73.41
2023-03-16T03:42:56.887Z,72.61
2023-03-16T03:45:24.777Z,73.33
2023-03-16T03:47:52.772Z,73.34
2023-03-16T03:50:21.287Z,73.74
2023-03-16T03:52:51.378Z,73.47
2023-03-16T03:55:19.430Z,73.43
2023-03-16T03:57:47.599Z,73.81
2023-03-16T04:00:16.820Z,73.64
2023-03-16T04:02:44.980Z,73.87
2023-03-16T04:05:13.139Z,73.54
2023-03-16T04:07:41.398Z,73.14
2023-03-16T04:10:12.008Z,72.60
2023-03-16T04:12:40.107Z,72.40
2023-03-16T04:15:08.863Z,72.86
2023-03-16T04:17:36.690Z,73.58
2023-03-16T04:20:10.695Z,72.96
2023-03-16T04:22:38.554Z,72.55
2023-03-16T04:25:06.833Z,73.25
2023-03-16T04:27:36.848Z,73.14
2023-03-16T04:30:06.112Z,73.35
2023-03-16T04:32:34.143Z,73.24
2023-03-16T04:35:02.009Z,73.43
2023-03-16T04:37:29.956Z,73.47
2023-03-16T04:39:57.911Z,73.25
2023-03-16T04:42:25.853Z,72.68
2023-03-16T04:44:56.237Z,72.16
2023-03-16T04:47:24.297Z,72.57
2023-03-16T04:49:52.176Z,71.99
2023-03-16T04:52:20.910Z,71.97
2023-03-16T04:54:48.873Z,72.23
2023-03-16T04:57:19.458Z,72.06
2023-03-16T04:59:47.392Z,71.42
2023-03-16T05:02:16.968Z,71.77
2023-03-16T05:04:45.202Z,71.06
2023-03-16T05:07:13.277Z,70.76
2023-03-16T05:09:41.744Z,69.48
2023-03-16T05:12:10.983Z,70.49
2023-03-16T05:14:39.576Z,70.42
2023-03-16T05:17:07.802Z,69.54
2023-03-16T05:19:37.111Z,69.27
2023-03-16T05:22:05.029Z,69.64
2023-03-16T05:24:33.073Z,70.06
2023-03-16T05:27:03.630Z,69.36
2023-03-16T05:29:32.249Z,69.22
2023-03-16T05:32:00.484Z,69.11
2023-03-16T05:34:28.676Z,68.92
2023-03-16T05:36:58.244Z,69.22
2023-03-16T05:39:26.416Z,67.98
2023-03-16T05:41:55.307Z,68.45
2023-03-16T05:44:23.592Z,67.93
2023-03-16T05:46:51.684Z,67.59
2023-03-16T05:49:19.741Z,68.18
2023-03-16T05:51:47.976Z,68.15
2023-03-16T05:54:17.297Z,66.80
2023-03-16T05:56:45.266Z,67.44
2023-03-16T05:59:13.097Z,67.55
2023-03-16T06:01:41.206Z,67.32
2023-03-16T06:04:09.870Z,66.67
2023-03-16T06:06:37.799Z,66.06
2023-03-16T06:09:05.780Z,65.76
2023-03-16T06:11:36.495Z,64.92
2023-03-16T06:14:05.275Z,65.17
2023-03-16T06:16:34.243Z,65.03
2023-03-16T06:19:02.769Z,64.24
2023-03-16T06:21:31.128Z,64.35
2023-03-16T06:23:59.391Z,64.55
2023-03-16T06:26:27.497Z,64.04
2023-03-16T06:28:56.827Z,63.66
2023-03-16T06:31:24.845Z,63.02
2023-03-16T06:33:52.967Z,63.05
2023-03-16T06:36:21.702Z,62.67
2023-03-16T06:38:49.726Z,62.23
2023-03-16T06:41:18.298Z,62.49
2023-03-16T06:43:46.577Z,61.46
2023-03-16T06:46:15.954Z,61.96
2023-03-16T06:48:43.959Z,61.85
2023-03-16T06:51:11.916Z,61.58
2023-03-16T06:53:41.424Z,61.78
2023-03-16T06:56:09.546Z,61.14
2023-03-16T06:58:37.637Z,60.91
2023-03-16T07:01:07.137Z,60.84
2023-03-16T07:03:36.557Z,60.81
2023-03-16T07:06:04.601Z,60.74
2023-03-16T07:08:32.518Z,60.80
2023-03-16T07:11:00.434Z,60.15
2023-03-16T07:13:28.514Z,60.78
2023-03-16T07:15:56.390Z,60.30
2023-03-16T07:18:26.035Z,60.60
2023-03-16T07:20:55.911Z,60.35
2023-03-16T07:23:24.673Z,60.14
2023-03-16T07:25:52.933Z,59.53
2023-03-16T07:28:21.142Z,58.93
2023-03-16T07:31:02.963Z,58.52
2023-03-16T07:33:32.598Z,57.81
2023-03-16T07:36:04.503Z,57.84
2023-03-16T07:38:33.585Z,57.25
2023-03-16T07:41:01.713Z,56.92
2023-03-16T07:43:30.320Z,57.42
2023-03-16T07:45:58.369Z,56.86
2023-03-16T07:48:26.746Z,56.73
2023-03-16T07:50:55.120Z,56.03
2023-03-16T07:53:24.509Z,55.26
2023-03-16T07:55:52.380Z,55.65
2023-03-16T07:58:20.294Z,55.55
2023-03-16T08:00:48.285Z,55.52
2023-03-16T08:03:16.275Z,55.13
2023-03-16T08:05:44.151Z,55.70
2023-03-16T08:08:12.054Z,55.51
2023-03-16T08:10:41.649Z,55.94
2023-03-16T08:13:09.597Z,54.96
2023-03-16T08:15:37.642Z,55.01
2023-03-16T08:18:07.118Z,54.67
2023-03-16T08:20:35.472Z,54.06
2023-03-16T08:23:06.073Z,53.50
2023-03-16T08:25:34.274Z,54.34
2023-03-16T08:28:04.618Z,53.46
2023-03-16T08:30:33.259Z,52.05
2023-03-16T08:33:03.262Z,50.64
2023-03-16T08:35:31.415Z,49.01
2023-03-16T08:37:59.879Z,47.66
2023-03-16T08:40:29.903Z,45.69
2023-03-16T08:42:58.164Z,44.45
2023-03-16T08:45:28.033Z,42.30
2023-03-16T08:47:56.146Z,41.41
2023-03-16T08:50:25.340Z,39.57
2023-03-16T08:52:53.617Z,38.35
2023-03-16T08:55:21.720Z,37.80
2023-03-16T08:57:49.950Z,37.34
2023-03-16T09:00:20.471Z,36.91
2023-03-16T09:02:50.163Z,36.30
2023-03-16T09:05:18.554Z,37.08
2023-03-16T09:07:48.909Z,36.70
2023-03-16T09:10:17.574Z,35.38
2023-03-16T09:12:48.712Z,36.45
2023-03-16T09:15:16.935Z,36.50
2023-03-16T09:17:45.883Z,36.06
2023-03-16T09:20:22.813Z,35.97
2023-03-16T09:22:54.648Z,35.81
2023-03-16T09:25:25.561Z,35.49
2023-03-16T09:27:53.852Z,36.43
2023-03-16T09:30:22.118Z,37.37
2023-03-16T09:32:50.533Z,37.80
2023-03-16T09:35:20.288Z,37.91
2023-03-16T09:38:04.797Z,38.53
2023-03-16T09:40:36.078Z,39.64
2023-03-16T09:43:27.637Z,39.86
2023-03-16T09:46:07.687Z,40.35
2023-03-16T09:48:38.726Z,40.16
2023-03-16T09:51:25.215Z,40.71
2023-03-16T09:54:00.351Z,40.69
2023-03-16T09:56:33.583Z,40.82
2023-03-16T09:59:03.278Z,40.71
2023-03-16T10:01:39.855Z,40.25
2023-03-16T10:04:21.437Z,40.50
2023-03-16T10:06:59.116Z,40.57
2023-03-16T10:09:35.902Z,40.52
2023-03-16T10:12:08.789Z,40.80
2023-03-16T10:14:45.930Z,39.56
2023-03-16T10:17:19.318Z,39.74
2023-03-16T10:19:52.653Z,39.43
2023-03-16T10:22:26.806Z,37.91
2023-03-16T10:25:03.693Z,37.78
2023-03-16T10:27:36.685Z,37.55
2023-03-16T10:30:21.355Z,36.68
2023-03-16T10:32:50.839Z,37.27
2023-03-16T10:35:42.954Z,35.59
2023-03-16T10:38:30.683Z,35.75
2023-03-16T10:40:58.948Z,34.95
2023-03-16T10:43:27.940Z,35.19
2023-03-16T10:46:02.354Z,33.97
2023-03-16T10:48:34.264Z,34.24
2023-03-16T10:51:09.372Z,34.10
2023-03-16T10:53:42.926Z,33.28
2023-03-16T10:56:13.867Z,33.20
2023-03-16T10:58:54.401Z,32.52
2023-03-16T11:01:26.975Z,32.37
2023-03-16T11:03:57.169Z,31.30
2023-03-16T11:06:30.679Z,31.08
2023-03-16T11:09:08.756Z,32.08
2023-03-16T11:11:38.910Z,31.24
2023-03-16T11:14:15.277Z,30.52
2023-03-16T11:16:47.817Z,31.24
2023-03-16T11:19:20.864Z,30.74
2023-03-16T11:21:55.126Z,31.17
2023-03-16T11:24:30.590Z,30.57
2023-03-16T11:27:06.112Z,30.18
2023-03-16T11:29:45.714Z,29.46
2023-03-16T11:32:20.854Z,29.11
2023-03-16T11:34:49.326Z,29.95
2023-03-16T11:37:31.831Z,28.79
2023-03-16T11:40:14.320Z,28.86
2023-03-16T11:42:54.881Z,28.17
2023-03-16T11:45:33.884Z,27.74
2023-03-16T11:48:34.573Z,27.41
2023-03-16T11:51:10.803Z,27.35
2023-03-16T11:53:53.091Z,27.55
2023-03-16T11:56:33.054Z,27.14
2023-03-16T11:59:24.448Z,27.93
2023-03-16T12:02:07.301Z,28.42
2023-03-16T12:04:55.584Z,27.65
2023-03-16T12:07:41.119Z,28.34
2023-03-16T12:10:25.066Z,28.53
2023-03-16T12:13:03.821Z,27.84
2023-03-16T12:15:38.583Z,27.49
2023-03-16T12:18:18.395Z,26.76
2023-03-16T12:20:53.584Z,27.98
2023-03-16T12:23:33.030Z,27.50
2023-03-16T12:26:04.917Z,26.89
2023-03-16T12:28:34.330Z,27.40
2023-03-16T12:31:13.513Z,26.41
2023-03-16T12:33:54.216Z,27.24
2023-03-16T12:36:52.246Z,26.83
2023-03-16T12:39:31.131Z,26.81
2023-03-16T12:42:10.292Z,27.48
2023-03-16T12:44:48.547Z,27.02
2023-03-16T12:47:24.051Z,26.01
2023-03-16T12:49:53.043Z,26.01
2023-03-16T12:52:21.572Z,26.72
2023-03-16T12:54:54.987Z,26.11
2023-03-16T12:57:27.110Z,26.58
2023-03-16T13:00:02.234Z,25.98
2023-03-16T13:02:32.941Z,26.54
2023-03-16T13:05:02.956Z,26.55
2023-03-16T13:07:33.401Z,26.87
2023-03-16T13:10:09.058Z,27.20
2023-03-16T13:12:40.075Z,27.36
2023-03-16T13:15:31.719Z,27.08
2023-03-16T13:18:23.981Z,27.54
2023-03-16T13:21:09.131Z,27.25
2023-03-16T13:23:54.564Z,27.16
2023-03-16T13:26:42.425Z,27.66
2023-03-16T13:29:25.928Z,27.61
2023-03-16T13:31:57.987Z,27.44
2023-03-16T13:34:30.690Z,27.20
2023-03-16T13:37:02.002Z,27.60
2023-03-16T13:39:31.680Z,26.77
2023-03-16T13:42:03.589Z,26.50
2023-03-16T13:44:35.252Z,26.26
2023-03-16T13:47:08.648Z,26.33
2023-03-16T13:49:44.835Z,26.67
2023-03-16T13:52:27.976Z,26.69
2023-03-16T13:54:57.521Z,27.48
2023-03-16T13:57:29.750Z,27.16
2023-03-16T14:00:05.811Z,26.85
2023-03-16T14:02:42.579Z,26.15
2023-03-16T14:05:13.164Z,25.36
2023-03-16T14:07:40.999Z,25.91
2023-03-16T14:10:12.616Z,25.12
2023-03-16T14:12:40.780Z,25.18
2023-03-16T14:15:10.241Z,24.88
2023-03-16T14:17:39.789Z,25.61
2023-03-16T14:20:16.189Z,25.77
2023-03-16T14:22:44.379Z,26.92
2023-03-16T14:25:22.180Z,27.44
2023-03-16T14:27:57.937Z,27.45
2023-03-16T14:30:28.125Z,27.30
2023-03-16T14:32:59.789Z,27.37
2023-03-16T14:35:30.352Z,27.52
2023-03-16T14:38:23.499Z,27.29
2023-03-16T14:40:56.648Z,27.93
2023-03-16T14:43:32.799Z,27.96
2023-03-16T14:46:01.725Z,27.90
2023-03-16T14:48:31.948Z,28.32
2023-03-16T14:51:02.198Z,28.06
2023-03-16T14:53:30.937Z,28.01
2023-03-16T14:56:00.291Z,28.24
2023-03-16T14:58:30.673Z,28.71
2023-03-16T15:01:01.774Z,28.18
2023-03-16T15:03:36.445Z,28.10
2023-03-16T15:06:07.712Z,27.49
2023-03-16T15:08:43.598Z,28.33
2023-03-16T15:11:12.002Z,27.92
2023-03-16T15:14:04.415Z,28.64
2023-03-16T15:16:32.876Z,28.73
2023-03-16T15:19:02.220Z,28.66
2023-03-16T15:21:36.111Z,29.08
2023-03-16T15:24:04.269Z,29.28
2023-03-16T15:26:32.882Z,29.68
2023-03-16T15:29:03.071Z,29.87
2023-03-16T15:31:33.306Z,29.87
2023-03-16T15:34:02.825Z,29.77
2023-03-16T15:36:31.199Z,29.40
2023-03-16T15:39:01.790Z,29.92
2023-03-16T15:41:38.175Z,29.99
2023-03-16T15:44:14.438Z,29.95
2023-03-16T15:46:42.699Z,30.02
2023-03-16T15:49:12.251Z,29.99
2023-03-16T15:51:42.570Z,30.86
2023-03-16T15:54:13.281Z,30.81
2023-03-16T15:56:53.784Z,30.75
2023-03-16T15:59:23.584Z,31.00
2023-03-16T16:01:52.900Z,30.92
2023-03-16T16:04:25.197Z,30.88
2023-03-16T16:06:56.047Z,31.42
2023-03-16T16:09:24.807Z,30.92
2023-03-16T16:11:53.043Z,30.63
2023-03-16T16:14:26.629Z,30.34
2023-03-16T16:16:55.902Z,30.43
2023-03-16T16:19:25.577Z,30.31
2023-03-16T16:21:53.997Z,30.30
2023-03-16T16:24:22.589Z,30.56
2023-03-16T16:26:55.610Z,30.79
2023-03-16T16:29:25.342Z,30.58
2023-03-16T16:31:53.485Z,30.67
2023-03-16T16:34:24.687Z,30.96
2023-03-16T16:36:54.685Z,31.08
2023-03-16T16:39:23.074Z,31.18
2023-03-16T16:41:54.804Z,31.17
2023-03-16T16:44:25.536Z,30.69
2023-03-16T16:46:54.097Z,31.46
2023-03-16T16:49:24.974Z,30.86
2023-03-16T16:51:55.486Z,30.99
2023-03-16T16:54:25.268Z,30.71
2023-03-16T16:56:56.329Z,30.95
2023-03-16T16:59:27.354Z,30.58
2023-03-16T17:01:56.612Z,31.34
2023-03-16T17:04:27.242Z,31.67
2023-03-16T17:06:59.067Z,30.97
2023-03-16T17:09:28.603Z,30.98
2023-03-16T17:11:59.038Z,31.90
2023-03-16T17:14:28.796Z,31.53
2023-03-16T17:16:57.466Z,32.02
2023-03-16T17:19:27.855Z,31.58
2023-03-16T17:21:59.235Z,31.83
2023-03-16T17:24:28.823Z,31.92
2023-03-16T17:26:59.435Z,32.40
2023-03-16T17:29:30.262Z,32.90
2023-03-16T17:31:59.662Z,33.20
2023-03-16T17:34:31.004Z,33.15
2023-03-16T17:37:00.571Z,33.65
2023-03-16T17:39:30.730Z,33.46
2023-03-16T17:42:00.452Z,33.67
2023-03-16T17:44:33.154Z,34.06
2023-03-16T17:47:01.381Z,34.31
2023-03-16T17:49:30.778Z,34.34
2023-03-16T17:52:00.678Z,35.07
2023-03-16T17:54:28.979Z,34.44
2023-03-16T17:56:57.051Z,35.10
2023-03-16T17:59:24.968Z,35.57
2023-03-16T18:01:53.109Z,35.83
2023-03-16T18:04:22.792Z,36.51
2023-03-16T18:06:51.572Z,36.51
2023-03-16T18:09:21.654Z,36.46
2023-03-16T18:11:51.758Z,36.99
2023-03-16T18:14:35.332Z,37.26
2023-03-16T18:17:05.462Z,38.13
2023-03-16T18:19:33.700Z,38.07
2023-03-16T18:22:04.230Z,38.15
2023-03-16T18:24:33.941Z,38.21
2023-03-16T18:27:01.948Z,38.24
2023-03-16T18:29:30.376Z,38.58
2023-03-16T18:31:59.363Z,39.73
2023-03-16T18:34:36.295Z,39.36
2023-03-16T18:37:06.335Z,39.30
2023-03-16T18:39:35.772Z,39.74
2023-03-16T18:42:03.937Z,39.72
2023-03-16T18:44:33.030Z,39.85
2023-03-16T18:47:04.398Z,39.52
2023-03-16T18:49:35.222Z,39.63
2023-03-16T18:52:04.794Z,40.24
2023-03-16T18:54:36.807Z,40.27
2023-03-16T18:57:06.891Z,40.54
2023-03-16T18:59:34.784Z,40.95
2023-03-16T19:02:03.266Z,40.95
2023-03-16T19:04:32.855Z,41.70
2023-03-16T19:07:01.248Z,41.15
2023-03-16T19:09:31.230Z,41.27
2023-03-16T19:12:00.424Z,41.28
2023-03-16T19:14:32.022Z,41.66
2023-03-16T19:17:00.305Z,41.05
2023-03-16T19:19:28.533Z,41.54
2023-03-16T19:21:59.538Z,41.78
2023-03-16T19:24:30.119Z,41.33
2023-03-16T19:26:58.873Z,41.36
2023-03-16T19:29:37.235Z,41.78
2023-03-16T19:32:05.709Z,42.08
2023-03-16T19:34:33.818Z,41.37
2023-03-16T19:37:01.873Z,42.34
2023-03-16T19:39:29.825Z,41.77
2023-03-16T19:41:59.528Z,41.71
2023-03-16T19:44:29.837Z,41.95
2023-03-16T19:46:59.173Z,42.65
2023-03-16T19:49:33.867Z,42.67
2023-03-16T19:52:02.310Z,42.60
2023-03-16T19:54:33.521Z,42.76
2023-03-16T19:57:08.013Z,42.72
2023-03-16T19:59:41.845Z,43.04
2023-03-16T20:02:25.164Z,42.88
2023-03-16T20:04:53.336Z,42.61
2023-03-16T20:07:22.086Z,43.02
2023-03-16T20:09:50.879Z,43.46
2023-03-16T20:12:24.038Z,43.83
2023-03-16T20:14:54.288Z,43.32
2023-03-16T20:17:24.554Z,43.28
2023-03-16T20:19:53.815Z,43.23
2023-03-16T20:22:23.353Z,43.10
2023-03-16T20:24:51.493Z,43.53
2023-03-16T20:27:20.457Z,43.54
2023-03-16T20:32:43.214Z,43.34
2023-03-16T20:35:28.101Z,43.26
2023-03-16T20:37:59.579Z,43.23
2023-03-16T20:40:28.585Z,43.85
2023-03-16T20:42:58.988Z,43.69
2023-03-16T20:45:32.047Z,43.15
2023-03-16T20:48:01.801Z,43.19
2023-03-16T20:50:31.906Z,43.36
2023-03-16T20:53:00.020Z,43.65
2023-03-16T20:55:30.161Z,43.88
2023-03-16T20:58:02.966Z,44.03
2023-03-16T21:00:33.387Z,43.55
2023-03-16T21:03:05.639Z,44.01
2023-03-16T21:05:33.936Z,43.54
2023-03-16T21:08:01.881Z,44.41
2023-03-16T21:10:32.067Z,44.21
2023-03-16T21:12:59.900Z,44.25
2023-03-16T21:15:30.669Z,44.44
2023-03-16T21:18:01.326Z,44.66
2023-03-16T21:20:33.076Z,45.07
2023-03-16T21:23:01.455Z,44.34
2023-03-16T21:25:32.732Z,44.74
2023-03-16T21:28:03.966Z,44.83
2023-03-16T21:30:34.964Z,44.29
2023-03-16T21:33:04.119Z,44.81
2023-03-16T21:35:38.382Z,44.85
2023-03-16T21:38:14.578Z,45.03
2023-03-16T21:40:52.819Z,45.09
2023-03-16T21:43:27.129Z,44.69
2023-03-16T21:45:57.520Z,44.88
2023-03-16T21:48:33.125Z,45.17
2023-03-16T21:51:02.694Z,45.03
2023-03-16T21:53:33.410Z,45.43
2023-03-16T21:56:01.366Z,44.53
2023-03-16T21:58:29.359Z,44.98
2023-03-16T22:00:58.517Z,45.26
2023-03-16T22:03:44.212Z,45.18
2023-03-16T22:06:19.265Z,45.10
2023-03-16T22:08:47.364Z,44.19
2023-03-16T22:11:17.428Z,44.55
2023-03-16T22:13:46.626Z,44.90
2023-03-16T22:16:17.393Z,45.01
2023-03-16T22:18:47.219Z,44.80
2023-03-16T22:21:30.758Z,45.15
2023-03-16T22:24:02.079Z,44.91
2023-03-16T22:26:31.062Z,45.18
2023-03-16T22:29:01.768Z,45.13
2023-03-16T22:31:34.242Z,45.57
2023-03-16T22:34:03.715Z,44.98
2023-03-16T22:36:34.881Z,45.24
2023-03-16T22:39:05.522Z,44.83
2023-03-16T22:41:36.939Z,45.01
2023-03-16T22:44:05.093Z,45.11
2023-03-16T22:46:32.953Z,44.90
2023-03-16T22:49:00.945Z,45.03
2023-03-16T22:51:36.547Z,44.87
2023-03-16T22:54:07.006Z,45.61
2023-03-16T22:56:36.968Z,45.02
2023-03-16T22:59:12.767Z,45.64
2023-03-16T23:01:42.899Z,45.30
2023-03-16T23:04:15.931Z,45.00
2023-03-16T23:06:45.250Z,45.90
2023-03-16T23:09:15.447Z,45.60
2023-03-16T23:11:47.284Z,45.44
2023-03-16T23:14:17.010Z,45.90
2023-03-16T23:16:45.807Z,45.67
2023-03-16T23:19:25.103Z,46.12
2023-03-16T23:21:57.039Z,45.89
2023-03-16T23:24:25.474Z,46.20
2023-03-16T23:26:55.183Z,46.64
2023-03-16T23:29:24.270Z,47.02
2023-03-16T23:31:53.887Z,46.77
2023-03-16T23:34:24.085Z,46.89
2023-03-16T23:36:52.702Z,46.66
2023-03-16T23:39:22.056Z,46.11
2023-03-16T23:41:51.319Z,46.29
2023-03-16T23:44:22.465Z,46.46
2023-03-16T23:46:50.853Z,46.32
2023-03-16T23:49:21.554Z,46.38
2023-03-16T23:51:49.661Z,46.93
2023-03-16T23:54:20.728Z,46.39
2023-03-16T23:56:50.139Z,46.95
2023-03-16T23:59:19.276Z,46.48
